sensor_id;sensor_type;location;lat;lon;timestamp;P1;durP1;ratioP1;P2;durP2;ratioP2
18042;SDS011;9146;48.074;11.968;2024-01-07T00:00:40;23.27;;;11.27;;
18042;SDS011;9146;48.074;11.968;2024-01-07T00:03:07;23.50;;;10.53;;
18042;SDS011;9146;48.074;11.968;2024-01-07T00:05:35;25.50;;;10.73;;
18042;SDS011;9146;48.074;11.968;2024-01-07T00:08:03;23.43;;;10.93;;
18042;SDS011;9146;48.074;11.968;2024-01-07T00:10:31;23.70;;;11.17;;
18042;SDS011;9146;48.074;11.968;2024-01-07T00:12:58;25.00;;;11.20;;
18042;SDS011;9146;48.074;11.968;2024-01-07T00:15:25;20.77;;;9.93;;
18042;SDS011;9146;48.074;11.968;2024-01-07T00:17:52;24.20;;;11.40;;
18042;SDS011;9146;48.074;11.968;2024-01-07T00:20:19;24.17;;;11.73;;
18042;SDS011;9146;48.074;11.968;2024-01-07T00:22:46;30.40;;;13.40;;
18042;SDS011;9146;48.074;11.968;2024-01-07T00:25:13;26.57;;;12.17;;
18042;SDS011;9146;48.074;11.968;2024-01-07T00:27:41;33.40;;;11.80;;
18042;SDS011;9146;48.074;11.968;2024-01-07T00:30:08;29.40;;;11.83;;
18042;SDS011;9146;48.074;11.968;2024-01-07T00:32:36;25.10;;;10.97;;
18042;SDS011;9146;48.074;11.968;2024-01-07T00:35:03;24.97;;;11.60;;
18042;SDS011;9146;48.074;11.968;2024-01-07T00:37:30;28.10;;;12.50;;
18042;SDS011;9146;48.074;11.968;2024-01-07T00:40:00;28.27;;;12.07;;
18042;SDS011;9146;48.074;11.968;2024-01-07T00:42:26;27.20;;;11.90;;
18042;SDS011;9146;48.074;11.968;2024-01-07T00:44:55;22.70;;;11.57;;
18042;SDS011;9146;48.074;11.968;2024-01-07T00:47:21;22.77;;;11.97;;
18042;SDS011;9146;48.074;11.968;2024-01-07T00:49:48;21.50;;;11.03;;
18042;SDS011;9146;48.074;11.968;2024-01-07T00:52:15;31.00;;;12.47;;
18042;SDS011;9146;48.074;11.968;2024-01-07T00:54:42;33.20;;;13.17;;
18042;SDS011;9146;48.074;11.968;2024-01-07T00:57:10;21.77;;;11.23;;
18042;SDS011;9146;48.074;11.968;2024-01-07T00:59:37;28.90;;;11.50;;
18042;SDS011;9146;48.074;11.968;2024-01-07T01:02:05;18.50;;;9.63;;
18042;SDS011;9146;48.074;11.968;2024-01-07T01:04:32;24.33;;;11.10;;
18042;SDS011;9146;48.074;11.968;2024-01-07T01:06:59;27.40;;;10.60;;
18042;SDS011;9146;48.074;11.968;2024-01-07T01:09:27;24.70;;;11.43;;
18042;SDS011;9146;48.074;11.968;2024-01-07T01:11:54;21.73;;;10.17;;
18042;SDS011;9146;48.074;11.968;2024-01-07T01:14:21;23.53;;;10.67;;
18042;SDS011;9146;48.074;11.968;2024-01-07T01:16:48;20.07;;;10.73;;
18042;SDS011;9146;48.074;11.968;2024-01-07T01:19:16;27.20;;;11.97;;
18042;SDS011;9146;48.074;11.968;2024-01-07T01:21:47;17.73;;;9.73;;
18042;SDS011;9146;48.074;11.968;2024-01-07T01:24:14;21.70;;;11.03;;
18042;SDS011;9146;48.074;11.968;2024-01-07T01:26:41;22.80;;;10.70;;
18042;SDS011;9146;48.074;11.968;2024-01-07T01:29:08;23.27;;;10.97;;
18042;SDS011;9146;48.074;11.968;2024-01-07T01:31:35;18.00;;;9.83;;
18042;SDS011;9146;48.074;11.968;2024-01-07T01:34:02;30.23;;;13.10;;
18042;SDS011;9146;48.074;11.968;2024-01-07T01:36:31;25.77;;;10.70;;
18042;SDS011;9146;48.074;11.968;2024-01-07T01:38:58;26.53;;;9.83;;
18042;SDS011;9146;48.074;11.968;2024-01-07T01:41:25;25.43;;;10.30;;
18042;SDS011;9146;48.074;11.968;2024-01-07T01:43:55;23.30;;;10.83;;
18042;SDS011;9146;48.074;11.968;2024-01-07T01:46:23;22.93;;;9.30;;
18042;SDS011;9146;48.074;11.968;2024-01-07T01:48:50;25.23;;;10.03;;
18042;SDS011;9146;48.074;11.968;2024-01-07T01:51:18;25.43;;;9.70;;
18042;SDS011;9146;48.074;11.968;2024-01-07T01:53:47;25.47;;;9.60;;
18042;SDS011;9146;48.074;11.968;2024-01-07T01:56:15;20.87;;;9.30;;
18042;SDS011;9146;48.074;11.968;2024-01-07T01:58:45;23.10;;;9.50;;
18042;SDS011;9146;48.074;11.968;2024-01-07T02:01:14;23.70;;;10.13;;
18042;SDS011;9146;48.074;11.968;2024-01-07T02:03:41;18.47;;;8.73;;
18042;SDS011;9146;48.074;11.968;2024-01-07T02:06:08;22.50;;;10.40;;
18042;SDS011;9146;48.074;11.968;2024-01-07T02:08:35;28.53;;;10.33;;
18042;SDS011;9146;48.074;11.968;2024-01-07T02:11:15;23.30;;;9.50;;
18042;SDS011;9146;48.074;11.968;2024-01-07T02:13:43;22.50;;;8.47;;
18042;SDS011;9146;48.074;11.968;2024-01-07T02:16:10;21.50;;;9.97;;
18042;SDS011;9146;48.074;11.968;2024-01-07T02:18:37;16.97;;;8.87;;
18042;SDS011;9146;48.074;11.968;2024-01-07T02:21:06;18.90;;;8.57;;
18042;SDS011;9146;48.074;11.968;2024-01-07T02:23:33;21.40;;;9.97;;
18042;SDS011;9146;48.074;11.968;2024-01-07T02:26:01;14.60;;;8.13;;
18042;SDS011;9146;48.074;11.968;2024-01-07T02:28:29;22.70;;;8.80;;
18042;SDS011;9146;48.074;11.968;2024-01-07T02:30:56;31.90;;;10.67;;
18042;SDS011;9146;48.074;11.968;2024-01-07T02:33:22;25.73;;;8.90;;
18042;SDS011;9146;48.074;11.968;2024-01-07T02:35:49;18.47;;;8.83;;
18042;SDS011;9146;48.074;11.968;2024-01-07T02:38:16;19.13;;;9.23;;
18042;SDS011;9146;48.074;11.968;2024-01-07T02:40:43;21.13;;;8.50;;
18042;SDS011;9146;48.074;11.968;2024-01-07T02:43:11;23.20;;;9.40;;
18042;SDS011;9146;48.074;11.968;2024-01-07T02:45:38;18.83;;;8.23;;
18042;SDS011;9146;48.074;11.968;2024-01-07T02:48:05;22.37;;;9.17;;
18042;SDS011;9146;48.074;11.968;2024-01-07T02:50:32;14.83;;;8.20;;
18042;SDS011;9146;48.074;11.968;2024-01-07T02:52:59;14.30;;;7.57;;
18042;SDS011;9146;48.074;11.968;2024-01-07T02:55:26;14.63;;;7.80;;
18042;SDS011;9146;48.074;11.968;2024-01-07T02:57:53;19.70;;;8.10;;
18042;SDS011;9146;48.074;11.968;2024-01-07T03:00:22;15.40;;;7.17;;
18042;SDS011;9146;48.074;11.968;2024-01-07T03:02:49;16.00;;;8.53;;
18042;SDS011;9146;48.074;11.968;2024-01-07T03:05:16;17.03;;;8.73;;
18042;SDS011;9146;48.074;11.968;2024-01-07T03:07:43;20.93;;;9.33;;
18042;SDS011;9146;48.074;11.968;2024-01-07T03:10:10;15.20;;;7.83;;
18042;SDS011;9146;48.074;11.968;2024-01-07T03:12:37;16.80;;;8.40;;
18042;SDS011;9146;48.074;11.968;2024-01-07T03:15:04;16.60;;;8.07;;
18042;SDS011;9146;48.074;11.968;2024-01-07T03:17:35;16.53;;;7.97;;
18042;SDS011;9146;48.074;11.968;2024-01-07T03:20:02;16.33;;;8.93;;
18042;SDS011;9146;48.074;11.968;2024-01-07T03:22:29;14.97;;;7.70;;
18042;SDS011;9146;48.074;11.968;2024-01-07T03:24:56;19.90;;;8.77;;
18042;SDS011;9146;48.074;11.968;2024-01-07T03:27:23;16.57;;;7.13;;
18042;SDS011;9146;48.074;11.968;2024-01-07T03:29:49;20.87;;;8.90;;
18042;SDS011;9146;48.074;11.968;2024-01-07T03:32:16;18.60;;;7.30;;
18042;SDS011;9146;48.074;11.968;2024-01-07T03:34:45;11.33;;;6.77;;
18042;SDS011;9146;48.074;11.968;2024-01-07T03:37:12;13.00;;;7.43;;
18042;SDS011;9146;48.074;11.968;2024-01-07T03:39:39;17.83;;;8.87;;
18042;SDS011;9146;48.074;11.968;2024-01-07T03:42:06;14.00;;;7.10;;
18042;SDS011;9146;48.074;11.968;2024-01-07T03:44:36;13.70;;;7.37;;
18042;SDS011;9146;48.074;11.968;2024-01-07T03:47:03;20.97;;;8.03;;
18042;SDS011;9146;48.074;11.968;2024-01-07T03:49:30;14.87;;;7.50;;
18042;SDS011;9146;48.074;11.968;2024-01-07T03:51:58;14.60;;;7.43;;
18042;SDS011;9146;48.074;11.968;2024-01-07T03:54:25;12.97;;;7.23;;
18042;SDS011;9146;48.074;11.968;2024-01-07T03:56:52;12.30;;;7.30;;
18042;SDS011;9146;48.074;11.968;2024-01-07T03:59:19;18.60;;;8.57;;
18042;SDS011;9146;48.074;11.968;2024-01-07T04:01:52;12.43;;;7.17;;
18042;SDS011;9146;48.074;11.968;2024-01-07T04:04:20;14.27;;;6.47;;
18042;SDS011;9146;48.074;11.968;2024-01-07T04:06:47;18.10;;;7.40;;
18042;SDS011;9146;48.074;11.968;2024-01-07T04:09:15;10.90;;;6.63;;
18042;SDS011;9146;48.074;11.968;2024-01-07T04:11:42;13.00;;;6.47;;
18042;SDS011;9146;48.074;11.968;2024-01-07T04:14:09;16.27;;;7.20;;
18042;SDS011;9146;48.074;11.968;2024-01-07T04:16:36;14.47;;;7.50;;
18042;SDS011;9146;48.074;11.968;2024-01-07T04:19:02;14.93;;;7.27;;
18042;SDS011;9146;48.074;11.968;2024-01-07T04:21:29;17.83;;;7.40;;
18042;SDS011;9146;48.074;11.968;2024-01-07T04:23:56;11.70;;;7.50;;
18042;SDS011;9146;48.074;11.968;2024-01-07T04:26:24;11.57;;;6.30;;
18042;SDS011;9146;48.074;11.968;2024-01-07T04:28:51;13.50;;;6.57;;
18042;SDS011;9146;48.074;11.968;2024-01-07T04:31:18;10.80;;;5.60;;
18042;SDS011;9146;48.074;11.968;2024-01-07T04:33:45;11.37;;;6.90;;
18042;SDS011;9146;48.074;11.968;2024-01-07T04:36:12;18.47;;;7.37;;
18042;SDS011;9146;48.074;11.968;2024-01-07T04:38:39;11.17;;;7.10;;
18042;SDS011;9146;48.074;11.968;2024-01-07T04:41:06;17.93;;;8.73;;
18042;SDS011;9146;48.074;11.968;2024-01-07T04:43:35;23.87;;;8.07;;
18042;SDS011;9146;48.074;11.968;2024-01-07T04:46:02;12.53;;;7.10;;
18042;SDS011;9146;48.074;11.968;2024-01-07T04:48:29;12.83;;;6.23;;
18042;SDS011;9146;48.074;11.968;2024-01-07T04:50:55;17.33;;;7.37;;
18042;SDS011;9146;48.074;11.968;2024-01-07T04:53:22;11.43;;;7.07;;
18042;SDS011;9146;48.074;11.968;2024-01-07T04:55:49;10.40;;;6.07;;
18042;SDS011;9146;48.074;11.968;2024-01-07T04:58:16;18.73;;;8.20;;
18042;SDS011;9146;48.074;11.968;2024-01-07T05:00:44;18.00;;;7.87;;
18042;SDS011;9146;48.074;11.968;2024-01-07T05:03:11;17.00;;;9.03;;
18042;SDS011;9146;48.074;11.968;2024-01-07T05:05:38;12.13;;;7.07;;
18042;SDS011;9146;48.074;11.968;2024-01-07T05:08:05;16.20;;;7.33;;
18042;SDS011;9146;48.074;11.968;2024-01-07T05:10:35;14.50;;;6.73;;
18042;SDS011;9146;48.074;11.968;2024-01-07T05:13:01;18.27;;;7.90;;
18042;SDS011;9146;48.074;11.968;2024-01-07T05:15:31;18.70;;;8.20;;
18042;SDS011;9146;48.074;11.968;2024-01-07T05:17:59;25.73;;;8.90;;
18042;SDS011;9146;48.074;11.968;2024-01-07T05:20:26;13.50;;;6.50;;
18042;SDS011;9146;48.074;11.968;2024-01-07T05:22:53;21.73;;;9.30;;
18042;SDS011;9146;48.074;11.968;2024-01-07T05:25:20;24.80;;;10.10;;
18042;SDS011;9146;48.074;11.968;2024-01-07T05:27:47;18.90;;;9.13;;
18042;SDS011;9146;48.074;11.968;2024-01-07T05:30:14;20.40;;;8.60;;
18042;SDS011;9146;48.074;11.968;2024-01-07T05:32:41;14.67;;;7.30;;
18042;SDS011;9146;48.074;11.968;2024-01-07T05:35:09;19.23;;;8.97;;
18042;SDS011;9146;48.074;11.968;2024-01-07T05:37:36;22.43;;;9.30;;
18042;SDS011;9146;48.074;11.968;2024-01-07T05:40:03;24.53;;;10.17;;
18042;SDS011;9146;48.074;11.968;2024-01-07T05:42:31;18.13;;;8.60;;
18042;SDS011;9146;48.074;11.968;2024-01-07T05:44:58;18.57;;;9.27;;
18042;SDS011;9146;48.074;11.968;2024-01-07T05:47:27;12.07;;;6.73;;
18042;SDS011;9146;48.074;11.968;2024-01-07T05:49:55;14.53;;;7.40;;
18042;SDS011;9146;48.074;11.968;2024-01-07T05:52:23;14.57;;;7.00;;
18042;SDS011;9146;48.074;11.968;2024-01-07T05:54:50;18.50;;;8.57;;
18042;SDS011;9146;48.074;11.968;2024-01-07T05:57:17;22.87;;;9.20;;
18042;SDS011;9146;48.074;11.968;2024-01-07T05:59:44;15.67;;;7.90;;
18042;SDS011;9146;48.074;11.968;2024-01-07T06:02:11;17.17;;;8.77;;
18042;SDS011;9146;48.074;11.968;2024-01-07T06:04:38;19.30;;;8.90;;
18042;SDS011;9146;48.074;11.968;2024-01-07T06:07:05;11.37;;;7.67;;
18042;SDS011;9146;48.074;11.968;2024-01-07T06:09:34;17.07;;;8.73;;
18042;SDS011;9146;48.074;11.968;2024-01-07T06:12:01;14.70;;;7.60;;
18042;SDS011;9146;48.074;11.968;2024-01-07T06:14:28;8.97;;;6.80;;
18042;SDS011;9146;48.074;11.968;2024-01-07T06:16:55;16.77;;;8.03;;
18042;SDS011;9146;48.074;11.968;2024-01-07T06:19:22;18.97;;;9.00;;
18042;SDS011;9146;48.074;11.968;2024-01-07T06:21:48;19.77;;;9.57;;
18042;SDS011;9146;48.074;11.968;2024-01-07T06:24:15;20.57;;;10.03;;
18042;SDS011;9146;48.074;11.968;2024-01-07T06:26:44;16.03;;;9.67;;
18042;SDS011;9146;48.074;11.968;2024-01-07T06:29:10;18.93;;;9.13;;
18042;SDS011;9146;48.074;11.968;2024-01-07T06:31:42;13.27;;;8.53;;
18042;SDS011;9146;48.074;11.968;2024-01-07T06:34:09;15.43;;;8.27;;
18042;SDS011;9146;48.074;11.968;2024-01-07T06:36:38;15.60;;;7.90;;
18042;SDS011;9146;48.074;11.968;2024-01-07T06:39:05;14.73;;;8.23;;
18042;SDS011;9146;48.074;11.968;2024-01-07T06:41:32;17.50;;;8.43;;
18042;SDS011;9146;48.074;11.968;2024-01-07T06:44:01;21.00;;;10.17;;
18042;SDS011;9146;48.074;11.968;2024-01-07T06:46:28;22.95;;;12.57;;
18042;SDS011;9146;48.074;11.968;2024-01-07T06:48:55;18.77;;;9.77;;
18042;SDS011;9146;48.074;11.968;2024-01-07T06:51:22;19.43;;;9.73;;
18042;SDS011;9146;48.074;11.968;2024-01-07T06:53:49;16.87;;;9.67;;
18042;SDS011;9146;48.074;11.968;2024-01-07T06:56:16;17.40;;;8.20;;
18042;SDS011;9146;48.074;11.968;2024-01-07T06:58:43;19.47;;;10.50;;
18042;SDS011;9146;48.074;11.968;2024-01-07T07:01:11;15.63;;;8.83;;
18042;SDS011;9146;48.074;11.968;2024-01-07T07:03:39;19.50;;;9.90;;
18042;SDS011;9146;48.074;11.968;2024-01-07T07:06:07;19.13;;;9.43;;
18042;SDS011;9146;48.074;11.968;2024-01-07T07:08:34;14.60;;;8.23;;
18042;SDS011;9146;48.074;11.968;2024-01-07T07:11:01;20.67;;;11.23;;
18042;SDS011;9146;48.074;11.968;2024-01-07T07:13:28;14.90;;;9.53;;
18042;SDS011;9146;48.074;11.968;2024-01-07T07:15:55;26.07;;;12.30;;
18042;SDS011;9146;48.074;11.968;2024-01-07T07:18:25;22.70;;;11.33;;
18042;SDS011;9146;48.074;11.968;2024-01-07T07:20:52;21.03;;;11.07;;
18042;SDS011;9146;48.074;11.968;2024-01-07T07:23:19;19.03;;;11.03;;
18042;SDS011;9146;48.074;11.968;2024-01-07T07:25:46;17.30;;;9.87;;
18042;SDS011;9146;48.074;11.968;2024-01-07T07:28:13;24.67;;;10.27;;
18042;SDS011;9146;48.074;11.968;2024-01-07T07:30:41;14.87;;;9.77;;
18042;SDS011;9146;48.074;11.968;2024-01-07T07:33:08;18.13;;;8.80;;
18042;SDS011;9146;48.074;11.968;2024-01-07T07:35:36;17.13;;;9.10;;
18042;SDS011;9146;48.074;11.968;2024-01-07T07:38:05;15.43;;;9.20;;
18042;SDS011;9146;48.074;11.968;2024-01-07T07:40:32;17.30;;;9.70;;
18042;SDS011;9146;48.074;11.968;2024-01-07T07:42:58;13.40;;;8.47;;
18042;SDS011;9146;48.074;11.968;2024-01-07T07:45:25;20.13;;;9.47;;
18042;SDS011;9146;48.074;11.968;2024-01-07T07:47:52;18.70;;;9.90;;
18042;SDS011;9146;48.074;11.968;2024-01-07T07:50:19;21.43;;;9.50;;
18042;SDS011;9146;48.074;11.968;2024-01-07T07:52:48;18.73;;;10.00;;
18042;SDS011;9146;48.074;11.968;2024-01-07T07:55:15;13.43;;;7.87;;
18042;SDS011;9146;48.074;11.968;2024-01-07T07:57:43;18.40;;;9.67;;
18042;SDS011;9146;48.074;11.968;2024-01-07T08:00:09;17.63;;;8.87;;
18042;SDS011;9146;48.074;11.968;2024-01-07T08:02:38;13.50;;;8.90;;
18042;SDS011;9146;48.074;11.968;2024-01-07T08:05:06;14.77;;;8.60;;
18042;SDS011;9146;48.074;11.968;2024-01-07T08:07:33;20.53;;;9.50;;
18042;SDS011;9146;48.074;11.968;2024-01-07T08:10:03;17.90;;;8.53;;
18042;SDS011;9146;48.074;11.968;2024-01-07T08:12:33;14.37;;;7.50;;
18042;SDS011;9146;48.074;11.968;2024-01-07T08:15:00;19.37;;;9.70;;
18042;SDS011;9146;48.074;11.968;2024-01-07T08:17:27;14.23;;;7.80;;
18042;SDS011;9146;48.074;11.968;2024-01-07T08:19:55;17.83;;;10.10;;
18042;SDS011;9146;48.074;11.968;2024-01-07T08:22:21;26.43;;;10.67;;
18042;SDS011;9146;48.074;11.968;2024-01-07T08:24:48;14.90;;;8.83;;
18042;SDS011;9146;48.074;11.968;2024-01-07T08:27:17;21.67;;;9.40;;
18042;SDS011;9146;48.074;11.968;2024-01-07T08:29:44;17.50;;;9.00;;
18042;SDS011;9146;48.074;11.968;2024-01-07T08:32:11;15.47;;;8.97;;
18042;SDS011;9146;48.074;11.968;2024-01-07T08:34:38;13.80;;;8.33;;
18042;SDS011;9146;48.074;11.968;2024-01-07T08:37:06;18.13;;;10.27;;
18042;SDS011;9146;48.074;11.968;2024-01-07T08:39:34;18.43;;;8.90;;
18042;SDS011;9146;48.074;11.968;2024-01-07T08:42:01;15.70;;;8.83;;
18042;SDS011;9146;48.074;11.968;2024-01-07T08:44:30;18.07;;;9.17;;
18042;SDS011;9146;48.074;11.968;2024-01-07T08:46:57;11.87;;;7.40;;
18042;SDS011;9146;48.074;11.968;2024-01-07T08:49:25;17.67;;;9.30;;
18042;SDS011;9146;48.074;11.968;2024-01-07T08:51:52;16.43;;;9.80;;
18042;SDS011;9146;48.074;11.968;2024-01-07T08:54:21;17.60;;;8.67;;
18042;SDS011;9146;48.074;11.968;2024-01-07T08:56:48;18.17;;;10.20;;
18042;SDS011;9146;48.074;11.968;2024-01-07T08:59:15;18.93;;;8.93;;
18042;SDS011;9146;48.074;11.968;2024-01-07T09:01:45;21.30;;;10.53;;
18042;SDS011;9146;48.074;11.968;2024-01-07T09:04:12;16.43;;;9.43;;
18042;SDS011;9146;48.074;11.968;2024-01-07T09:06:41;20.07;;;10.23;;
18042;SDS011;9146;48.074;11.968;2024-01-07T09:09:08;23.10;;;10.33;;
18042;SDS011;9146;48.074;11.968;2024-01-07T09:11:35;23.27;;;10.17;;
18042;SDS011;9146;48.074;11.968;2024-01-07T09:14:02;20.47;;;10.53;;
18042;SDS011;9146;48.074;11.968;2024-01-07T09:16:29;17.53;;;9.90;;
18042;SDS011;9146;48.074;11.968;2024-01-07T09:18:58;19.20;;;10.20;;
18042;SDS011;9146;48.074;11.968;2024-01-07T09:21:24;21.10;;;9.97;;
18042;SDS011;9146;48.074;11.968;2024-01-07T09:23:51;21.47;;;8.43;;
18042;SDS011;9146;48.074;11.968;2024-01-07T09:26:18;22.03;;;9.57;;
18042;SDS011;9146;48.074;11.968;2024-01-07T09:28:45;31.07;;;11.40;;
18042;SDS011;9146;48.074;11.968;2024-01-07T09:31:12;20.70;;;10.27;;
18042;SDS011;9146;48.074;11.968;2024-01-07T09:33:40;19.97;;;11.17;;
18042;SDS011;9146;48.074;11.968;2024-01-07T09:36:09;26.60;;;11.40;;
18042;SDS011;9146;48.074;11.968;2024-01-07T09:38:36;24.00;;;11.57;;
18042;SDS011;9146;48.074;11.968;2024-01-07T09:41:03;21.87;;;11.03;;
18042;SDS011;9146;48.074;11.968;2024-01-07T09:43:31;20.80;;;10.63;;
18042;SDS011;9146;48.074;11.968;2024-01-07T09:45:58;20.30;;;10.33;;
18042;SDS011;9146;48.074;11.968;2024-01-07T09:48:25;20.13;;;10.80;;
18042;SDS011;9146;48.074;11.968;2024-01-07T09:50:52;24.50;;;11.23;;
18042;SDS011;9146;48.074;11.968;2024-01-07T09:53:21;25.07;;;10.80;;
18042;SDS011;9146;48.074;11.968;2024-01-07T09:55:52;21.73;;;12.37;;
18042;SDS011;9146;48.074;11.968;2024-01-07T09:58:25;23.93;;;11.20;;
18042;SDS011;9146;48.074;11.968;2024-01-07T10:00:52;26.40;;;11.10;;
18042;SDS011;9146;48.074;11.968;2024-01-07T10:03:20;23.87;;;10.87;;
18042;SDS011;9146;48.074;11.968;2024-01-07T10:05:47;26.10;;;12.10;;
18042;SDS011;9146;48.074;11.968;2024-01-07T10:08:14;28.07;;;13.13;;
18042;SDS011;9146;48.074;11.968;2024-01-07T10:10:42;28.07;;;12.20;;
18042;SDS011;9146;48.074;11.968;2024-01-07T10:13:10;30.30;;;12.30;;
18042;SDS011;9146;48.074;11.968;2024-01-07T10:15:37;22.07;;;12.47;;
18042;SDS011;9146;48.074;11.968;2024-01-07T10:18:04;21.43;;;11.93;;
18042;SDS011;9146;48.074;11.968;2024-01-07T10:20:33;27.43;;;11.53;;
18042;SDS011;9146;48.074;11.968;2024-01-07T10:23:01;21.90;;;11.40;;
18042;SDS011;9146;48.074;11.968;2024-01-07T10:25:29;28.03;;;12.43;;
18042;SDS011;9146;48.074;11.968;2024-01-07T10:28:00;32.03;;;13.93;;
18042;SDS011;9146;48.074;11.968;2024-01-07T10:30:27;26.57;;;12.13;;
18042;SDS011;9146;48.074;11.968;2024-01-07T10:32:57;26.03;;;11.67;;
18042;SDS011;9146;48.074;11.968;2024-01-07T10:35:27;26.00;;;13.17;;
18042;SDS011;9146;48.074;11.968;2024-01-07T10:37:58;23.47;;;11.13;;
18042;SDS011;9146;48.074;11.968;2024-01-07T10:40:26;29.13;;;13.50;;
18042;SDS011;9146;48.074;11.968;2024-01-07T10:42:54;27.10;;;12.87;;
18042;SDS011;9146;48.074;11.968;2024-01-07T10:45:23;24.73;;;11.30;;
18042;SDS011;9146;48.074;11.968;2024-01-07T10:47:51;27.73;;;11.87;;
18042;SDS011;9146;48.074;11.968;2024-01-07T10:50:21;22.13;;;12.40;;
18042;SDS011;9146;48.074;11.968;2024-01-07T10:52:49;25.03;;;12.17;;
18042;SDS011;9146;48.074;11.968;2024-01-07T10:55:18;21.87;;;13.17;;
18042;SDS011;9146;48.074;11.968;2024-01-07T10:57:46;22.30;;;13.17;;
18042;SDS011;9146;48.074;11.968;2024-01-07T11:00:15;24.67;;;12.23;;
18042;SDS011;9146;48.074;11.968;2024-01-07T11:02:49;18.70;;;10.77;;
18042;SDS011;9146;48.074;11.968;2024-01-07T11:05:23;20.73;;;11.60;;
18042;SDS011;9146;48.074;11.968;2024-01-07T11:07:56;25.57;;;12.30;;
18042;SDS011;9146;48.074;11.968;2024-01-07T11:10:31;18.57;;;12.10;;
18042;SDS011;9146;48.074;11.968;2024-01-07T11:13:05;21.63;;;13.83;;
18042;SDS011;9146;48.074;11.968;2024-01-07T11:15:50;22.50;;;11.57;;
18042;SDS011;9146;48.074;11.968;2024-01-07T11:18:19;25.93;;;12.13;;
18042;SDS011;9146;48.074;11.968;2024-01-07T11:20:46;19.30;;;10.83;;
18042;SDS011;9146;48.074;11.968;2024-01-07T11:23:26;24.43;;;13.50;;
18042;SDS011;9146;48.074;11.968;2024-01-07T11:25:56;19.77;;;12.20;;
18042;SDS011;9146;48.074;11.968;2024-01-07T11:28:42;23.13;;;12.03;;
18042;SDS011;9146;48.074;11.968;2024-01-07T11:31:14;15.63;;;10.70;;
18042;SDS011;9146;48.074;11.968;2024-01-07T11:33:44;20.30;;;10.80;;
18042;SDS011;9146;48.074;11.968;2024-01-07T11:36:11;17.40;;;11.50;;
18042;SDS011;9146;48.074;11.968;2024-01-07T11:38:43;18.57;;;11.53;;
18042;SDS011;9146;48.074;11.968;2024-01-07T11:41:11;18.40;;;11.50;;
18042;SDS011;9146;48.074;11.968;2024-01-07T11:43:51;18.10;;;11.90;;
18042;SDS011;9146;48.074;11.968;2024-01-07T11:46:20;14.97;;;10.80;;
18042;SDS011;9146;48.074;11.968;2024-01-07T11:48:49;20.23;;;10.33;;
18042;SDS011;9146;48.074;11.968;2024-01-07T11:51:18;15.13;;;10.30;;
18042;SDS011;9146;48.074;11.968;2024-01-07T11:53:45;14.90;;;10.80;;
18042;SDS011;9146;48.074;11.968;2024-01-07T11:56:13;16.07;;;10.40;;
18042;SDS011;9146;48.074;11.968;2024-01-07T11:58:40;17.37;;;10.93;;
18042;SDS011;9146;48.074;11.968;2024-01-07T12:01:07;16.47;;;10.20;;
18042;SDS011;9146;48.074;11.968;2024-01-07T12:03:34;16.77;;;10.80;;
18042;SDS011;9146;48.074;11.968;2024-01-07T12:06:02;14.60;;;10.20;;
18042;SDS011;9146;48.074;11.968;2024-01-07T12:08:29;20.03;;;10.17;;
18042;SDS011;9146;48.074;11.968;2024-01-07T12:10:56;19.10;;;11.27;;
18042;SDS011;9146;48.074;11.968;2024-01-07T12:13:24;13.40;;;9.60;;
18042;SDS011;9146;48.074;11.968;2024-01-07T12:15:51;15.03;;;10.47;;
18042;SDS011;9146;48.074;11.968;2024-01-07T12:18:19;16.53;;;10.07;;
18042;SDS011;9146;48.074;11.968;2024-01-07T12:20:54;12.83;;;9.67;;
18042;SDS011;9146;48.074;11.968;2024-01-07T12:23:23;13.23;;;9.17;;
18042;SDS011;9146;48.074;11.968;2024-01-07T12:25:51;9.63;;;7.63;;
18042;SDS011;9146;48.074;11.968;2024-01-07T12:28:18;10.73;;;8.70;;
18042;SDS011;9146;48.074;11.968;2024-01-07T12:30:45;13.73;;;9.40;;
18042;SDS011;9146;48.074;11.968;2024-01-07T12:33:15;10.33;;;7.77;;
18042;SDS011;9146;48.074;11.968;2024-01-07T12:35:44;12.97;;;9.43;;
18042;SDS011;9146;48.074;11.968;2024-01-07T12:38:11;11.67;;;8.93;;
18042;SDS011;9146;48.074;11.968;2024-01-07T12:40:40;11.50;;;8.33;;
18042;SDS011;9146;48.074;11.968;2024-01-07T12:43:07;11.30;;;8.70;;
18042;SDS011;9146;48.074;11.968;2024-01-07T12:45:34;11.60;;;7.97;;
18042;SDS011;9146;48.074;11.968;2024-01-07T12:48:01;10.30;;;7.77;;
18042;SDS011;9146;48.074;11.968;2024-01-07T12:50:28;10.90;;;8.37;;
18042;SDS011;9146;48.074;11.968;2024-01-07T12:52:56;9.90;;;8.00;;
18042;SDS011;9146;48.074;11.968;2024-01-07T12:55:24;11.57;;;9.40;;
18042;SDS011;9146;48.074;11.968;2024-01-07T12:57:54;11.70;;;9.10;;
18042;SDS011;9146;48.074;11.968;2024-01-07T13:00:21;11.33;;;8.20;;
18042;SDS011;9146;48.074;11.968;2024-01-07T13:02:48;11.97;;;8.70;;
18042;SDS011;9146;48.074;11.968;2024-01-07T13:05:16;12.00;;;9.00;;
18042;SDS011;9146;48.074;11.968;2024-01-07T13:07:43;12.20;;;9.43;;
18042;SDS011;9146;48.074;11.968;2024-01-07T13:10:10;8.37;;;7.07;;
18042;SDS011;9146;48.074;11.968;2024-01-07T13:12:38;9.43;;;8.27;;
18042;SDS011;9146;48.074;11.968;2024-01-07T13:15:07;9.30;;;7.57;;
18042;SDS011;9146;48.074;11.968;2024-01-07T13:17:34;9.53;;;7.40;;
18042;SDS011;9146;48.074;11.968;2024-01-07T13:20:01;8.90;;;7.00;;
18042;SDS011;9146;48.074;11.968;2024-01-07T13:22:31;8.50;;;6.80;;
18042;SDS011;9146;48.074;11.968;2024-01-07T13:24:58;8.33;;;7.27;;
18042;SDS011;9146;48.074;11.968;2024-01-07T13:27:25;11.07;;;8.73;;
18042;SDS011;9146;48.074;11.968;2024-01-07T13:29:52;13.37;;;9.10;;
18042;SDS011;9146;48.074;11.968;2024-01-07T13:32:20;9.20;;;7.27;;
18042;SDS011;9146;48.074;11.968;2024-01-07T13:34:47;9.60;;;7.83;;
18042;SDS011;9146;48.074;11.968;2024-01-07T13:37:14;10.20;;;8.40;;
18042;SDS011;9146;48.074;11.968;2024-01-07T13:39:41;11.40;;;7.87;;
18042;SDS011;9146;48.074;11.968;2024-01-07T13:42:08;9.83;;;8.23;;
18042;SDS011;9146;48.074;11.968;2024-01-07T13:44:34;8.60;;;7.70;;
18042;SDS011;9146;48.074;11.968;2024-01-07T13:47:09;12.00;;;9.07;;
18042;SDS011;9146;48.074;11.968;2024-01-07T13:49:38;10.70;;;8.57;;
18042;SDS011;9146;48.074;11.968;2024-01-07T13:52:05;11.93;;;8.67;;
18042;SDS011;9146;48.074;11.968;2024-01-07T13:54:31;11.00;;;8.07;;
18042;SDS011;9146;48.074;11.968;2024-01-07T13:56:58;16.40;;;9.47;;
18042;SDS011;9146;48.074;11.968;2024-01-07T13:59:25;11.80;;;9.27;;
18042;SDS011;9146;48.074;11.968;2024-01-07T14:01:54;11.10;;;8.77;;
18042;SDS011;9146;48.074;11.968;2024-01-07T14:04:23;14.03;;;9.10;;
18042;SDS011;9146;48.074;11.968;2024-01-07T14:06:54;10.80;;;7.70;;
18042;SDS011;9146;48.074;11.968;2024-01-07T14:09:22;9.17;;;7.10;;
18042;SDS011;9146;48.074;11.968;2024-01-07T14:11:49;10.13;;;7.63;;
18042;SDS011;9146;48.074;11.968;2024-01-07T14:14:17;9.57;;;7.70;;
18042;SDS011;9146;48.074;11.968;2024-01-07T14:16:45;11.83;;;8.47;;
18042;SDS011;9146;48.074;11.968;2024-01-07T14:19:12;9.50;;;7.13;;
18042;SDS011;9146;48.074;11.968;2024-01-07T14:21:41;8.83;;;7.80;;
18042;SDS011;9146;48.074;11.968;2024-01-07T14:24:09;11.03;;;8.20;;
18042;SDS011;9146;48.074;11.968;2024-01-07T14:26:36;11.87;;;8.83;;
18042;SDS011;9146;48.074;11.968;2024-01-07T14:29:03;11.50;;;8.53;;
18042;SDS011;9146;48.074;11.968;2024-01-07T14:31:31;10.20;;;8.30;;
18042;SDS011;9146;48.074;11.968;2024-01-07T14:33:57;8.93;;;7.60;;